Time;durP1;ratioP1;P1;durP2;ratioP2;P2;SDS_P1;SDS_P2;PMS_P1;PMS_P2;Temp;Humidity;BMP_temperature;BMP_pressure;BME280_temperature;BME280_humidity;BME280_pressure;Samples;Min_cycle;Max_cycle;Signal;HPM_P1;HPM_P2
2020/12/10 04:47:05;;;;;;;19.13;4.30;;;18.80;75.60;;;;;;5085226;27;20455;-77
2020/12/10 04:49:31;;;;;;;29.90;5.07;;;19.70;72.30;;;;;;5059462;28;20049;-67
2020/12/10 04:51:58;;;;;;;11.13;3.70;;;20.30;70.60;;;;;;5027780;28;68280;-67
2020/12/10 04:54:24;;;;;;;12.25;3.15;;;20.80;68.70;;;;;;5028083;28;68814;-66
2020/12/10 04:56:51;;;;;;;10.45;3.83;;;21.10;67.40;;;;;;5046560;28;20055;-67
2020/12/10 04:59:17;;;;;;;7.57;2.78;;;21.40;67.00;;;;;;5026457;28;70490;-68
2020/12/10 05:01:44;;;;;;;10.27;3.33;;;21.60;65.90;;;;;;5028078;28;20471;-67
2020/12/10 05:22:47;;;;;;;16.60;3.08;;;24.00;54.10;;;;;;5081273;27;20397;-52
2020/12/10 05:25:13;;;;;;;16.40;2.93;;;24.30;53.90;;;;;;5079800;28;20476;-51
2020/12/10 05:27:40;;;;;;;12.30;2.95;;;24.20;57.00;;;;;;5078316;28;20473;-51
2020/12/10 05:30:13;;;;;;;14.30;2.88;;;24.20;57.10;;;;;;5075925;28;20024;-50
2020/12/10 05:32:42;;;;;;;6.97;2.80;;;24.20;57.40;;;;;;5076107;28;20385;-51
2020/12/10 05:35:26;;;;;;;9.07;2.75;;;24.30;57.60;;;;;;5075494;28;20028;-50
2020/12/10 05:37:54;;;;;;;13.35;2.50;;;24.40;57.80;;;;;;5076014;28;20106;-51
2020/12/10 05:40:21;;;;;;;9.85;2.40;;;24.40;57.20;;;;;;5079016;28;20028;-51
2020/12/10 05:42:52;;;;;;;11.73;2.83;;;24.50;57.00;;;;;;5075417;28;20043;-51
2020/12/10 05:45:23;;;;;;;12.63;2.97;;;24.60;56.70;;;;;;5078651;28;20024;-50
2020/12/10 05:47:53;;;;;;;11.90;2.55;;;24.70;56.60;;;;;;5076758;28;20033;-51
2020/12/10 05:50:25;;;;;;;11.73;2.70;;;24.70;56.20;;;;;;5071537;28;20067;-51
2020/12/10 05:53:05;;;;;;;14.18;2.60;;;24.80;56.00;;;;;;5076623;28;20028;-51
2020/12/10 05:55:34;;;;;;;11.70;3.15;;;24.90;56.10;;;;;;5079193;28;20029;-50
2020/12/10 05:58:02;;;;;;;11.15;2.22;;;24.90;55.90;;;;;;5075092;28;20037;-50
2020/12/10 06:00:29;;;;;;;13.13;2.97;;;24.90;55.90;;;;;;5078522;28;20028;-51
2020/12/10 06:02:57;;;;;;;10.48;2.67;;;25.00;55.80;;;;;;5077517;28;20119;-50
2020/12/10 06:05:24;;;;;;;11.20;2.42;;;25.00;55.70;;;;;;5078666;28;20040;-51
2020/12/10 06:08:11;;;;;;;9.00;2.08;;;25.00;55.40;;;;;;5078281;28;20024;-51
2020/12/10 06:10:43;;;;;;;12.35;2.55;;;25.00;55.30;;;;;;5078285;28;20032;-50
2020/12/10 06:13:11;;;;;;;8.50;2.30;;;25.10;55.60;;;;;;5083788;28;20040;-51
2020/12/10 06:15:38;;;;;;;10.25;2.47;;;25.00;54.90;;;;;;5076255;28;20139;-50
2020/12/10 06:18:09;;;;;;;10.20;2.55;;;25.10;54.70;;;;;;5075514;28;20025;-50
2020/12/10 06:20:41;;;;;;;9.07;2.70;;;25.00;54.40;;;;;;5075974;28;20137;-50
2020/12/10 06:23:32;;;;;;;6.43;2.15;;;25.00;54.20;;;;;;5076316;28;20020;-50
2020/12/10 06:26:20;;;;;;;11.20;2.72;;;25.00;54.40;;;;;;5072534;28;20094;-50
2020/12/10 06:28:47;;;;;;;6.30;2.20;;;25.00;54.00;;;;;;5074966;28;20542;-50
2020/12/10 06:31:13;;;;;;;8.55;2.45;;;25.00;53.80;;;;;;5076226;28;20025;-50
2020/12/10 06:33:44;;;;;;;6.18;2.28;;;24.90;53.50;;;;;;5065921;28;20086;-50
2020/12/10 06:36:25;;;;;;;9.70;2.13;;;24.90;53.30;;;;;;5062319;28;20028;-50
2020/12/10 06:38:54;;;;;;;8.50;2.17;;;24.90;53.20;;;;;;5065683;28;20028;-51
2020/12/10 06:41:21;;;;;;;6.47;1.95;;;24.90;53.10;;;;;;5065811;28;20520;-51
2020/12/10 06:43:47;;;;;;;5.60;2.17;;;24.90;52.90;;;;;;5065002;28;20021;-50
2020/12/10 06:46:14;;;;;;;6.70;2.20;;;24.90;53.00;;;;;;5064164;28;20163;-50
2020/12/10 06:48:43;;;;;;;6.47;2.17;;;24.80;52.70;;;;;;5060917;28;20046;-50
2020/12/10 06:51:16;;;;;;;4.70;2.08;;;24.80;52.60;;;;;;5067687;28;20042;-50
2020/12/10 06:54:02;;;;;;;10.63;2.28;;;24.80;52.70;;;;;;5065897;28;20066;-48
2020/12/10 06:56:52;;;;;;;15.48;2.85;;;24.70;52.90;;;;;;5065524;28;20464;-50
2020/12/10 06:59:35;;;;;;;6.43;2.25;;;24.70;52.90;;;;;;5061876;28;20054;-49
2020/12/10 07:02:21;;;;;;;11.57;2.40;;;24.70;53.40;;;;;;5061970;28;20123;-50
2020/12/10 07:04:50;;;;;;;10.38;2.38;;;24.60;53.40;;;;;;5058999;28;20524;-49
2020/12/10 07:07:19;;;;;;;8.63;2.50;;;24.60;53.40;;;;;;5056689;28;20021;-50
2020/12/10 07:09:58;;;;;;;11.27;2.50;;;24.60;53.30;;;;;;5065300;28;20024;-49
2020/12/10 07:12:24;;;;;;;9.73;2.67;;;24.50;53.20;;;;;;5062898;28;20063;-50
2020/12/10 07:14:52;;;;;;;9.95;2.20;;;24.50;53.30;;;;;;5062266;28;20423;-49
2020/12/10 07:17:19;;;;;;;8.07;2.35;;;24.50;53.30;;;;;;5062313;28;20078;-48
2020/12/10 07:19:46;;;;;;;6.85;2.30;;;24.40;53.30;;;;;;5067296;28;20093;-48
2020/12/10 07:22:12;;;;;;;13.15;2.83;;;24.40;53.30;;;;;;5057418;28;20048;-49
2020/12/10 07:24:39;;;;;;;11.10;2.45;;;24.40;53.60;;;;;;5065037;28;20033;-48
2020/12/10 07:27:06;;;;;;;12.93;2.88;;;24.30;53.60;;;;;;5071710;28;20021;-48
2020/12/10 07:29:33;;;;;;;16.70;2.80;;;24.30;53.90;;;;;;5074424;28;20032;-48
2020/12/10 07:32:00;;;;;;;13.05;2.55;;;24.30;54.00;;;;;;5074947;28;20040;-48
2020/12/10 07:34:27;;;;;;;14.27;2.95;;;24.20;54.00;;;;;;5075313;28;20085;-48
2020/12/10 07:36:55;;;;;;;17.58;3.38;;;24.10;54.30;;;;;;5074734;28;20045;-48
2020/12/10 07:39:30;;;;;;;12.18;3.08;;;24.10;54.50;;;;;;5065357;28;20031;-48
2020/12/10 07:41:57;;;;;;;15.98;2.97;;;24.00;54.40;;;;;;5075017;28;20028;-48
2020/12/10 07:44:31;;;;;;;15.82;3.45;;;24.00;54.50;;;;;;5073242;28;20465;-47
2020/12/10 07:47:01;;;;;;;14.95;2.83;;;24.00;54.80;;;;;;5074419;28;20032;-47
2020/12/10 16:32:35;;;;;;;14.80;7.10;;;14.10;69.60;;;;;;5100407;27;20474;-48
2020/12/10 16:35:01;;;;;;;18.73;6.90;;;13.80;69.30;;;;;;5090932;28;20024;-49
2020/12/10 16:37:28;;;;;;;16.33;7.30;;;13.90;69.80;;;;;;5091178;28;20528;-49
2020/12/10 16:39:54;;;;;;;17.70;7.43;;;14.10;70.00;;;;;;5090761;28;20066;-49
2020/12/10 16:42:21;;;;;;;19.75;6.70;;;14.20;69.80;;;;;;5091191;28;20024;-49
2020/12/10 16:44:47;;;;;;;70.80;50.90;;;14.40;69.60;;;;;;5088176;28;20039;-49
2020/12/10 16:47:14;;;;;;;16.45;9.05;;;14.60;69.50;;;;;;5083248;28;20112;-49
2020/12/10 16:49:40;;;;;;;22.83;10.10;;;14.80;69.10;;;;;;5090188;28;20021;-49
2020/12/10 16:52:07;;;;;;;18.95;11.05;;;15.00;68.70;;;;;;5090467;28;20036;-49
2020/12/10 16:54:33;;;;;;;57.95;45.65;;;15.30;68.40;;;;;;5090045;28;20028;-49
2020/12/10 16:57:00;;;;;;;57.83;47.47;;;15.50;68.00;;;;;;5090092;28;20043;-49
2020/12/10 16:59:27;;;;;;;90.50;74.10;;;15.80;67.60;;;;;;5089896;28;20356;-48
2020/12/10 17:01:55;;;;;;;79.88;67.47;;;16.00;67.20;;;;;;5089364;28;20465;-49
2020/12/10 17:04:22;;;;;;;77.07;68.85;;;16.30;66.90;;;;;;5089163;28;20112;-48
2020/12/10 17:06:52;;;;;;;75.65;67.50;;;16.60;66.60;;;;;;5090584;28;20460;-48
2020/12/10 17:09:19;;;;;;;74.55;61.20;;;16.80;66.20;;;;;;5090097;28;20368;-48
2020/12/10 17:11:45;;;;;;;68.90;60.55;;;17.20;65.90;;;;;;5087660;28;20028;-49
2020/12/10 17:14:12;;;;;;;61.97;55.38;;;17.40;65.50;;;;;;5077646;28;20017;-49
2020/12/10 17:16:39;;;;;;;59.40;52.60;;;17.80;65.40;;;;;;5070292;28;20021;-49
2020/12/10 17:19:05;;;;;;;53.65;48.20;;;18.00;64.80;;;;;;5090103;28;20035;-49
2020/12/10 17:21:32;;;;;;;52.28;44.92;;;18.30;64.50;;;;;;5089864;28;20380;-49
2020/12/10 17:23:59;;;;;;;53.90;43.70;;;18.60;64.00;;;;;;5090012;28;20477;-49
2020/12/10 17:26:32;;;;;;;50.38;40.90;;;18.90;63.50;;;;;;5089933;28;20525;-49
2020/12/10 17:29:00;;;;;;;45.42;37.58;;;19.20;62.90;;;;;;5089612;28;20025;-49
2020/12/10 17:31:27;;;;;;;41.83;35.08;;;19.40;62.50;;;;;;5088128;28;20059;-50
2020/12/10 17:33:54;;;;;;;50.97;31.73;;;19.70;61.90;;;;;;5089163;28;20028;-49
2020/12/10 17:36:22;;;;;;;36.47;31.98;;;19.90;61.40;;;;;;5087784;28;20052;-50
2020/12/10 17:38:49;;;;;;;36.97;29.00;;;20.10;60.80;;;;;;5087849;28;20158;-49
2020/12/10 17:41:16;;;;;;;34.33;28.55;;;20.30;60.10;;;;;;5085694;28;20059;-49
2020/12/10 17:43:43;;;;;;;42.70;26.35;;;20.50;59.60;;;;;;5077260;28;20028;-49
2020/12/10 17:46:10;;;;;;;38.65;24.38;;;20.60;59.00;;;;;;5076174;28;20051;-49
2020/12/10 17:48:38;;;;;;;33.90;22.35;;;20.80;58.50;;;;;;5074910;28;20028;-49
2020/12/10 17:51:10;;;;;;;34.30;21.85;;;21.00;57.90;;;;;;5074018;28;20028;-50
2020/12/10 17:53:36;;;;;;;44.47;20.95;;;21.10;57.40;;;;;;5064629;28;20064;-49
2020/12/10 17:56:03;;;;;;;25.85;19.08;;;21.30;57.00;;;;;;5075469;28;20040;-49
2020/12/10 17:58:30;;;;;;;32.78;18.08;;;21.40;56.70;;;;;;5075675;28;20100;-49
2020/12/10 18:00:57;;;;;;;24.00;16.50;;;21.60;56.30;;;;;;5074306;28;20031;-49
2020/12/10 18:03:25;;;;;;;25.50;16.33;;;21.70;55.80;;;;;;5074336;28;20025;-49
2020/12/10 18:05:51;;;;;;;26.40;15.30;;;21.80;55.70;;;;;;5075716;28;20017;-49
2020/12/10 18:08:18;;;;;;;29.33;15.07;;;21.90;55.90;;;;;;5076101;28;20052;-49
2020/12/10 18:10:44;;;;;;;29.27;14.50;;;22.00;56.00;;;;;;5075934;28;20024;-49
2020/12/10 18:13:11;;;;;;;34.15;13.20;;;22.20;56.10;;;;;;5075260;28;20016;-49
2020/12/10 18:15:37;;;;;;;30.83;13.38;;;22.20;56.20;;;;;;5075348;28;20424;-49
2020/12/10 18:18:04;;;;;;;31.38;13.07;;;22.30;55.90;;;;;;5075671;28;20154;-49
2020/12/10 18:20:32;;;;;;;32.08;12.55;;;22.40;56.00;;;;;;5075412;28;20083;-49
2020/12/10 18:22:58;;;;;;;35.05;11.95;;;22.50;55.80;;;;;;5074955;28;20364;-49
2020/12/10 18:25:25;;;;;;;25.80;10.98;;;22.50;55.40;;;;;;5075211;28;20024;-51
2020/12/10 18:27:51;;;;;;;26.77;11.07;;;22.60;55.00;;;;;;5074871;28;20028;-50
2020/12/10 18:30:18;;;;;;;25.35;11.18;;;22.70;55.00;;;;;;5075685;28;20024;-49
2020/12/10 18:32:45;;;;;;;29.48;10.00;;;22.70;54.00;;;;;;5075207;28;20045;-49
2020/12/10 18:35:11;;;;;;;22.35;9.57;;;22.70;53.40;;;;;;5075657;28;20464;-49
2020/12/10 18:37:38;;;;;;;27.10;9.90;;;22.80;53.20;;;;;;5075278;28;20050;-49
2020/12/10 18:40:06;;;;;;;56.53;30.55;;;22.90;53.00;;;;;;5075208;28;20403;-50
2020/12/10 18:42:32;;;;;;;41.90;11.85;;;22.90;52.80;;;;;;5074086;28;20031;-50
2020/12/10 18:44:59;;;;;;;30.40;10.75;;;23.00;52.60;;;;;;5075074;28;20025;-49
2020/12/10 18:47:25;;;;;;;24.15;10.13;;;23.00;52.60;;;;;;5075380;28;20082;-50
2020/12/10 18:49:52;;;;;;;33.45;10.18;;;23.00;52.50;;;;;;5075613;28;20021;-49
2020/12/10 18:52:20;;;;;;;27.27;9.43;;;23.10;52.40;;;;;;5075314;28;20421;-49
2020/12/10 18:54:47;;;;;;;29.13;9.60;;;23.10;52.20;;;;;;5073978;28;20341;-49
2020/12/10 18:57:13;;;;;;;28.25;9.43;;;23.10;52.00;;;;;;5074776;28;20067;-49
2020/12/10 18:59:40;;;;;;;20.77;9.43;;;23.20;51.80;;;;;;5075098;28;20075;-50
2020/12/10 19:02:13;;;;;;;20.73;8.93;;;23.10;51.60;;;;;;5074675;28;20060;-49
2020/12/10 19:04:39;;;;;;;21.65;8.30;;;23.20;51.50;;;;;;5069709;28;20047;-50
2020/12/10 19:07:06;;;;;;;21.70;8.50;;;23.20;51.50;;;;;;5074917;28;20039;-49
2020/12/10 19:09:32;;;;;;;19.58;7.88;;;23.20;51.30;;;;;;5073700;28;20058;-50
2020/12/10 19:11:59;;;;;;;21.38;8.07;;;23.20;51.40;;;;;;5073885;28;20060;-49
2020/12/10 19:14:25;;;;;;;24.65;7.78;;;23.20;51.20;;;;;;5074280;28;20028;-50
2020/12/10 19:16:52;;;;;;;15.98;7.70;;;23.20;51.10;;;;;;5074565;28;20059;-50
2020/12/10 19:19:19;;;;;;;15.68;7.70;;;23.20;50.90;;;;;;5073457;28;20074;-49
2020/12/10 19:21:45;;;;;;;15.55;6.97;;;23.20;51.00;;;;;;5074290;28;20033;-49
2020/12/10 19:24:12;;;;;;;17.08;7.35;;;23.20;51.00;;;;;;5074566;28;20029;-48
2020/12/10 19:26:38;;;;;;;17.35;7.10;;;23.20;50.80;;;;;;5073863;28;20028;-49
2020/12/10 19:29:05;;;;;;;18.08;6.97;;;23.20;50.80;;;;;;5074475;28;20027;-49
2020/12/10 19:31:31;;;;;;;12.20;6.78;;;23.20;50.90;;;;;;5073887;28;20123;-50
2020/12/10 19:33:58;;;;;;;14.90;7.22;;;23.10;50.80;;;;;;5073643;28;20399;-49
2020/12/10 19:36:25;;;;;;;14.63;6.57;;;23.10;51.00;;;;;;5074330;28;20130;-49
2020/12/10 19:38:51;;;;;;;17.58;6.65;;;23.10;50.90;;;;;;5072932;28;20024;-49
2020/12/10 19:41:18;;;;;;;12.10;6.82;;;23.00;50.90;;;;;;5073735;28;20090;-48
2020/12/10 19:43:45;;;;;;;13.75;6.30;;;23.00;51.00;;;;;;5074284;28;20025;-49
2020/12/10 19:46:11;;;;;;;14.25;6.72;;;23.00;50.90;;;;;;5073752;28;20030;-49
2020/12/10 19:48:38;;;;;;;17.77;6.68;;;22.90;50.90;;;;;;5074101;28;20025;-49
2020/12/10 19:51:05;;;;;;;12.52;5.97;;;22.90;51.00;;;;;;5073750;28;20028;-50
2020/12/10 19:53:32;;;;;;;15.95;6.68;;;22.80;51.00;;;;;;5074033;28;20463;-50
2020/12/10 19:55:59;;;;;;;10.70;6.22;;;22.80;51.10;;;;;;5074366;28;20023;-49
2020/12/10 19:58:25;;;;;;;13.40;6.13;;;22.70;51.10;;;;;;5072900;28;20115;-49
2020/12/10 20:00:54;;;;;;;16.30;6.13;;;22.70;51.10;;;;;;5073487;28;20082;-50
2020/12/10 20:03:20;;;;;;;19.52;6.70;;;22.70;51.10;;;;;;5074003;28;20020;-50
2020/12/10 20:05:47;;;;;;;14.73;6.15;;;22.60;51.20;;;;;;5073790;28;20020;-49
2020/12/10 20:08:14;;;;;;;14.48;6.40;;;22.60;51.30;;;;;;5073577;28;20031;-50
2020/12/10 20:10:40;;;;;;;15.82;6.32;;;22.50;51.30;;;;;;5073980;28;20028;-49
2020/12/10 20:13:07;;;;;;;22.40;7.05;;;22.50;51.40;;;;;;5073610;28;20031;-49
2020/12/10 20:15:33;;;;;;;13.38;5.88;;;22.50;51.60;;;;;;5073859;28;20459;-49
2020/12/10 20:18:06;;;;;;;15.45;6.35;;;22.40;51.90;;;;;;5072054;28;20361;-49
2020/12/10 20:20:33;;;;;;;10.65;5.75;;;22.40;52.10;;;;;;5073399;28;20040;-49
2020/12/10 20:23:04;;;;;;;15.63;5.88;;;22.30;52.40;;;;;;5073415;28;20031;-50
2020/12/10 20:26:01;;;;;;;13.50;5.55;;;22.30;52.70;;;;;;5073424;28;20457;-49
2020/12/10 20:28:28;;;;;;;11.77;5.63;;;22.20;52.90;;;;;;5073710;28;20017;-49
2020/12/10 20:30:56;;;;;;;13.50;5.78;;;22.20;53.30;;;;;;5073655;28;20049;-49
2020/12/10 20:33:23;;;;;;;11.90;5.35;;;22.20;53.50;;;;;;5073442;28;20035;-50
2020/12/10 20:36:03;;;;;;;11.18;5.78;;;22.10;53.80;;;;;;5073695;28;20032;-49
2020/12/10 20:38:30;;;;;;;9.70;5.38;;;22.10;53.90;;;;;;5072561;28;20464;-49
2020/12/10 20:40:57;;;;;;;12.90;4.95;;;22.10;54.10;;;;;;5073052;28;20029;-50
2020/12/10 20:43:26;;;;;;;11.40;5.43;;;22.00;54.20;;;;;;5073581;28;20047;-50
2020/12/10 20:45:53;;;;;;;11.85;5.03;;;22.00;54.50;;;;;;5073607;28;20059;-49
2020/12/10 20:48:20;;;;;;;11.63;5.03;;;21.90;54.70;;;;;;5072311;28;20028;-50
2020/12/10 20:50:46;;;;;;;11.23;5.15;;;21.90;55.00;;;;;;5073464;28;20032;-49
2020/12/10 20:53:13;;;;;;;15.18;5.40;;;21.90;55.20;;;;;;5073177;28;20381;-49
2020/12/10 20:55:39;;;;;;;19.27;5.50;;;21.80;55.50;;;;;;5072792;28;20441;-49
2020/12/10 20:58:06;;;;;;;16.73;5.35;;;21.70;55.80;;;;;;5073133;28;20025;-49
2020/12/10 21:00:33;;;;;;;15.93;5.63;;;21.70;56.20;;;;;;5073062;28;20021;-49
2020/12/10 21:02:59;;;;;;;18.30;5.82;;;21.70;56.40;;;;;;5072152;28;20405;-49
2020/12/10 21:05:26;;;;;;;17.48;5.53;;;21.60;56.80;;;;;;5072770;28;20025;-49
2020/12/10 21:07:55;;;;;;;15.50;6.53;;;21.60;57.10;;;;;;5072923;28;20368;-49
2020/12/10 21:10:22;;;;;;;39.03;21.50;;;21.50;57.50;;;;;;5068740;28;20017;-50
2020/12/10 21:12:49;;;;;;;21.40;8.68;;;21.50;57.80;;;;;;5072928;28;20017;-49
2020/12/10 21:15:15;;;;;;;17.63;7.60;;;21.50;58.20;;;;;;5072944;28;20035;-48
2020/12/10 21:17:42;;;;;;;17.70;7.90;;;21.40;58.30;;;;;;5073622;28;20017;-48
2020/12/10 21:20:08;;;;;;;16.48;7.47;;;21.40;58.80;;;;;;5076951;28;20024;-48
2020/12/10 21:22:35;;;;;;;19.23;7.25;;;21.40;59.10;;;;;;5076828;28;20028;-49
2020/12/10 21:25:02;;;;;;;15.32;7.40;;;21.30;59.40;;;;;;5076631;28;20453;-49
2020/12/10 21:27:29;;;;;;;18.63;7.32;;;21.30;59.60;;;;;;5075957;28;20031;-49
2020/12/10 21:29:56;;;;;;;13.00;7.03;;;21.30;59.70;;;;;;5076530;28;20020;-49
2020/12/10 21:32:22;;;;;;;17.58;7.57;;;21.20;59.90;;;;;;5076740;28;20367;-49
2020/12/10 21:34:53;;;;;;;17.17;7.28;;;21.20;60.00;;;;;;5076782;28;20445;-49
2020/12/10 21:37:21;;;;;;;14.03;6.97;;;21.20;60.10;;;;;;5076858;28;20451;-49
2020/12/10 21:39:48;;;;;;;19.15;6.85;;;21.20;60.30;;;;;;5076578;28;20024;-48
2020/12/10 21:42:14;;;;;;;12.00;6.47;;;21.20;60.40;;;;;;5076044;28;20080;-49
2020/12/10 21:44:41;;;;;;;14.98;6.32;;;21.20;60.50;;;;;;5076344;28;20479;-48
2020/12/10 21:47:08;;;;;;;21.55;11.65;;;21.20;60.50;;;;;;5076353;28;20025;-48
2020/12/10 21:49:34;;;;;;;16.70;8.45;;;21.20;60.50;;;;;;5076483;28;20025;-49
2020/12/10 21:52:01;;;;;;;10.57;7.05;;;21.20;60.50;;;;;;5076779;28;20111;-49
2020/12/10 21:54:27;;;;;;;24.90;7.60;;;21.20;60.60;;;;;;5075883;28;20029;-49
2020/12/10 21:56:57;;;;;;;14.07;7.13;;;21.20;60.60;;;;;;5074767;28;20668;-49
2020/12/10 21:59:24;;;;;;;16.30;7.45;;;21.20;60.60;;;;;;5075773;28;20020;-49
2020/12/10 22:01:51;;;;;;;18.77;7.53;;;21.20;60.50;;;;;;5076171;28;20468;-49
2020/12/10 22:04:17;;;;;;;19.23;7.25;;;21.20;60.60;;;;;;5075782;28;20484;-49
2020/12/10 22:06:44;;;;;;;18.50;6.93;;;21.20;60.60;;;;;;5076145;28;20021;-48
2020/12/10 22:09:11;;;;;;;15.48;6.57;;;21.20;60.60;;;;;;5075762;28;20531;-49
2020/12/10 22:11:39;;;;;;;15.20;6.57;;;21.20;60.60;;;;;;5075542;28;20070;-49
2020/12/10 22:14:08;;;;;;;12.18;5.88;;;21.10;60.50;;;;;;5075900;28;20035;-48
2020/12/10 22:16:34;;;;;;;19.02;6.70;;;21.10;60.60;;;;;;5075372;28;20020;-49
2020/12/10 22:19:01;;;;;;;12.88;6.55;;;21.10;61.20;;;;;;5075344;28;20048;-49
2020/12/10 22:21:27;;;;;;;15.35;6.60;;;21.10;60.60;;;;;;5074947;28;20090;-49
2020/12/10 22:23:54;;;;;;;17.98;6.00;;;21.10;60.70;;;;;;5075949;28;20441;-49
2020/12/10 22:26:26;;;;;;;15.90;6.50;;;21.10;60.70;;;;;;5073243;28;20025;-49
2020/12/10 22:28:54;;;;;;;61.08;41.90;;;21.10;60.80;;;;;;5073967;28;20054;-49
2020/12/10 22:31:28;;;;;;;34.03;19.48;;;21.10;60.70;;;;;;5075302;28;20041;-49
2020/12/10 22:33:55;;;;;;;30.30;15.57;;;21.10;60.70;;;;;;5074336;28;20027;-49
2020/12/10 22:36:22;;;;;;;23.70;14.07;;;21.10;60.80;;;;;;5075378;28;20021;-50
2020/12/10 22:38:49;;;;;;;26.05;13.80;;;21.10;60.90;;;;;;5074348;28;20051;-49
2020/12/10 22:41:20;;;;;;;20.90;13.05;;;21.10;60.80;;;;;;5075253;28;20032;-49
2020/12/10 22:43:50;;;;;;;27.30;12.43;;;21.10;60.90;;;;;;5074748;28;20364;-49
2020/12/10 22:46:21;;;;;;;24.30;10.75;;;21.10;60.90;;;;;;5074939;28;20021;-49
2020/12/10 22:48:50;;;;;;;28.02;11.02;;;21.10;60.90;;;;;;5075389;28;20025;-49
2020/12/10 22:51:16;;;;;;;27.40;10.35;;;21.20;61.00;;;;;;5074770;28;20043;-48
2020/12/10 22:53:43;;;;;;;22.35;9.85;;;21.20;60.80;;;;;;5073671;28;20021;-50
2020/12/10 22:56:14;;;;;;;32.20;10.63;;;21.20;60.60;;;;;;5075170;28;20025;-50
2020/12/10 22:58:42;;;;;;;24.17;10.05;;;21.30;60.70;;;;;;5075286;28;20126;-51
2020/12/10 23:01:13;;;;;;;22.42;9.10;;;21.30;60.70;;;;;;5073707;28;20036;-51
2020/12/10 23:03:40;;;;;;;23.52;8.70;;;21.40;60.80;;;;;;5073469;28;20751;-50
2020/12/10 23:06:08;;;;;;;19.20;9.02;;;21.40;60.90;;;;;;5071227;28;20032;-50
2020/12/10 23:08:35;;;;;;;25.08;8.13;;;21.40;60.90;;;;;;5072826;28;20129;-51
2020/12/10 23:11:02;;;;;;;20.90;8.73;;;21.50;60.90;;;;;;5073478;28;20479;-50
2020/12/10 23:13:29;;;;;;;20.58;7.43;;;21.50;60.90;;;;;;5074567;28;20492;-50
2020/12/10 23:15:55;;;;;;;22.83;7.63;;;21.50;60.90;;;;;;5074808;28;20020;-51
2020/12/10 23:18:23;;;;;;;17.90;7.32;;;21.60;60.90;;;;;;5072828;28;20407;-51
2020/12/10 23:20:50;;;;;;;15.50;6.53;;;21.60;60.90;;;;;;5074281;28;20115;-51
2020/12/10 23:23:18;;;;;;;16.67;7.22;;;21.70;60.70;;;;;;5073867;28;20039;-50
2020/12/10 23:25:45;;;;;;;14.30;6.75;;;21.70;60.60;;;;;;5074592;28;20021;-50
2020/12/10 23:28:13;;;;;;;14.27;6.57;;;21.70;60.70;;;;;;5072716;28;20021;-50
2020/12/10 23:30:40;;;;;;;12.32;5.43;;;21.70;60.60;;;;;;5074410;28;20020;-50
2020/12/10 23:33:07;;;;;;;15.50;5.57;;;21.70;60.20;;;;;;5074592;28;20468;-50
2020/12/10 23:35:33;;;;;;;12.77;5.60;;;21.80;60.00;;;;;;5074130;28;20415;-50
2020/12/10 23:38:00;;;;;;;12.88;5.38;;;21.70;60.00;;;;;;5073966;28;20363;-50
2020/12/10 23:40:27;;;;;;;18.67;5.28;;;21.80;60.10;;;;;;5073771;28;20103;-50
2020/12/10 23:42:53;;;;;;;13.55;5.10;;;21.80;59.90;;;;;;5073530;28;20024;-50
2020/12/10 23:45:20;;;;;;;12.38;5.22;;;21.80;59.90;;;;;;5074526;28;20016;-51
2020/12/10 23:47:50;;;;;;;12.80;5.18;;;21.80;59.80;;;;;;5073958;28;20016;-50
2020/12/10 23:50:18;;;;;;;14.90;4.50;;;21.80;59.90;;;;;;5074050;28;20021;-50
2020/12/10 23:52:46;;;;;;;12.93;5.22;;;21.80;60.00;;;;;;5074451;28;20108;-50
2020/12/10 23:55:15;;;;;;;12.70;4.75;;;21.80;60.30;;;;;;5073846;28;20025;-50
2020/12/10 23:57:46;;;;;;;10.10;4.15;;;21.80;60.00;;;;;;5073831;28;20025;-50
